M/T Arcadia — SY7849 — position and weather

sailwx.info

Track history (hours):
 
Tides and Currents Weather Stations Pressure Air Temp Water Temp Dewpoint Dewpoint Depression Visibility Wind Speed Wind Dir Waves Ship Positions

M/T Arcadia

Last reported at 2017-Feb-09 00:24 UTC. Time now 2017-Feb-25 18:59 UTC.
Position N 38°23' E 023°44'.
Warning: this ship's position is 16 days out of date.

Length 76 m; draft 3.4 m.

Type: Tanker. MMSI: 240560000.

Date/timePositionNaut miles runAvg speedWind from/ knotsBaromVisibWave heightAir tempDewpointWater temp
2017-Feb-09 00:24N 38°23' E 023°44'22 7.7
2017-Feb-08 21:33N 38°10' E 024°07'8 7.8
2017-Feb-08 20:33N 38°02' E 024°06'8 7.7
2017-Feb-08 19:33N 37°54' E 024°06'7 7.1
2017-Feb-08 18:33N 37°47' E 024°06'9 6.8
2017-Feb-08 17:15N 37°39' E 024°03'5 7.6
2017-Feb-08 16:32N 37°38' E 023°56'8 7.9
2017-Feb-08 15:33N 37°39' E 023°46'7 7.5
2017-Feb-08 14:33N 37°44' E 023°40'7 7.3
2017-Feb-08 13:33N 37°49' E 023°33'8 8.3
2017-Feb-08 12:33N 37°51' E 023°23'8 8.1
2017-Feb-08 11:33N 37°53' E 023°13'5 2.3
2017-Feb-08 09:17N 37°55' E 023°06'0 0.0
2017-Feb-08 07:14N 37°55' E 023°06'0 0.0
2017-Feb-08 04:23N 37°55' E 023°06'0 0.0
2017-Feb-08 03:29N 37°55' E 023°06'0 0.0
2017-Feb-07 22:28N 37°55' E 023°06'0 0.0
2017-Feb-07 21:34N 37°55' E 023°06'0 0.0
2017-Feb-07 20:28N 37°55' E 023°06'4 4.1
2017-Feb-07 19:33N 37°52' E 023°09'8 7.8
2017-Feb-07 18:33N 37°45' E 023°14'8 7.5
2017-Feb-07 17:33N 37°40' E 023°21'8 7.7
2017-Feb-07 16:33N 37°35' E 023°29'8 7.4
2017-Feb-07 15:30N 37°28' E 023°34'7 7.5
2017-Feb-07 14:32N 37°23' E 023°28'14 6.7
2017-Feb-07 12:28N 37°12' E 023°17'7 7.9
2017-Feb-07 11:33N 37°04' E 023°18'  
2017-Feb-03 13:33N 37°25' E 023°35'8 7.8
2017-Feb-03 12:33N 37°33' E 023°31'8 7.5
2017-Feb-03 11:33N 37°38' E 023°25'7 7.3
2017-Feb-03 10:33N 37°42' E 023°17'8 7.8
2017-Feb-03 09:34N 37°49' E 023°12'8 7.6
2017-Feb-03 08:33N 37°54' E 023°06'1 0.3
2017-Feb-03 06:30N 37°55' E 023°05'0 0.0
2017-Feb-03 05:20N 37°55' E 023°05'0 0.0
2017-Feb-03 04:31N 37°55' E 023°05'0 0.0
2017-Feb-02 16:34N 37°55' E 023°05'7 6.5
2017-Feb-02 15:32N 37°50' E 023°11'8 8.3
2017-Feb-02 14:33N 37°43' E 023°16'8 7.9
2017-Feb-02 13:33N 37°38' E 023°24'8 8.4
2017-Feb-02 12:33N 37°32' E 023°32'  
2017-Jan-30 21:25N 37°20' E 023°22'6 7.4
2017-Jan-30 20:33N 37°23' E 023°29'7 6.8
2017-Jan-30 19:32N 37°29' E 023°33'7 7.5
2017-Jan-30 18:33N 37°35' E 023°28'7 7.2
2017-Jan-30 17:33N 37°39' E 023°21'7 7.0
2017-Jan-30 16:33N 37°45' E 023°15'8 8.0
2017-Jan-30 15:33N 37°51' E 023°10'5 4.4
2017-Jan-30 14:29N 37°55' E 023°06'0 0.1
2017-Jan-30 13:28N 37°55' E 023°06'1 0.1
2017-Jan-30 09:10N 37°55' E 023°05'0 0.0
2017-Jan-30 08:07N 37°55' E 023°05'0 0.0
2017-Jan-30 07:25N 37°55' E 023°05'0 0.0
2017-Jan-30 06:25N 37°55' E 023°05'0 0.0
2017-Jan-30 02:33N 37°55' E 023°05'0 0.0
2017-Jan-30 01:32N 37°55' E 023°05'  
Track history (hours):
 
Tides and Currents Weather Stations Pressure Air Temp Water Temp Dewpoint Dewpoint Depression Visibility Wind Speed Wind Dir Waves Ship Positions

M/T Arcadia

Last reported at 2017-Feb-09 00:24 UTC. Time now 2017-Feb-25 18:59 UTC.
Position N 38°23' E 023°44'.
Warning: this ship's position is 16 days out of date.

Length 76 m; draft 3.4 m.

Type: Tanker. MMSI: 240560000.

Date/timePositionNaut miles runAvg speedWind from/ knotsBaromVisibWave heightAir tempDewpointWater temp
2017-Feb-09 00:24N 38°23' E 023°44'22 7.7
2017-Feb-08 21:33N 38°10' E 024°07'8 7.8
2017-Feb-08 20:33N 38°02' E 024°06'8 7.7
2017-Feb-08 19:33N 37°54' E 024°06'7 7.1
2017-Feb-08 18:33N 37°47' E 024°06'9 6.8
2017-Feb-08 17:15N 37°39' E 024°03'5 7.6
2017-Feb-08 16:32N 37°38' E 023°56'8 7.9
2017-Feb-08 15:33N 37°39' E 023°46'7 7.5
2017-Feb-08 14:33N 37°44' E 023°40'7 7.3
2017-Feb-08 13:33N 37°49' E 023°33'8 8.3
2017-Feb-08 12:33N 37°51' E 023°23'8 8.1
2017-Feb-08 11:33N 37°53' E 023°13'5 2.3
2017-Feb-08 09:17N 37°55' E 023°06'0 0.0
2017-Feb-08 07:14N 37°55' E 023°06'0 0.0
2017-Feb-08 04:23N 37°55' E 023°06'0 0.0
2017-Feb-08 03:29N 37°55' E 023°06'0 0.0
2017-Feb-07 22:28N 37°55' E 023°06'0 0.0
2017-Feb-07 21:34N 37°55' E 023°06'0 0.0
2017-Feb-07 20:28N 37°55' E 023°06'4 4.1
2017-Feb-07 19:33N 37°52' E 023°09'8 7.8
2017-Feb-07 18:33N 37°45' E 023°14'8 7.5
2017-Feb-07 17:33N 37°40' E 023°21'8 7.7
2017-Feb-07 16:33N 37°35' E 023°29'8 7.4
2017-Feb-07 15:30N 37°28' E 023°34'7 7.5
2017-Feb-07 14:32N 37°23' E 023°28'14 6.7
2017-Feb-07 12:28N 37°12' E 023°17'7 7.9
2017-Feb-07 11:33N 37°04' E 023°18'  
2017-Feb-03 13:33N 37°25' E 023°35'8 7.8
2017-Feb-03 12:33N 37°33' E 023°31'8 7.5
2017-Feb-03 11:33N 37°38' E 023°25'7 7.3
2017-Feb-03 10:33N 37°42' E 023°17'8 7.8
2017-Feb-03 09:34N 37°49' E 023°12'8 7.6
2017-Feb-03 08:33N 37°54' E 023°06'1 0.3
2017-Feb-03 06:30N 37°55' E 023°05'0 0.0
2017-Feb-03 05:20N 37°55' E 023°05'0 0.0
2017-Feb-03 04:31N 37°55' E 023°05'0 0.0
2017-Feb-02 16:34N 37°55' E 023°05'7 6.5
2017-Feb-02 15:32N 37°50' E 023°11'8 8.3
2017-Feb-02 14:33N 37°43' E 023°16'8 7.9
2017-Feb-02 13:33N 37°38' E 023°24'8 8.4
2017-Feb-02 12:33N 37°32' E 023°32'  
2017-Jan-30 21:25N 37°20' E 023°22'6 7.4
2017-Jan-30 20:33N 37°23' E 023°29'7 6.8
2017-Jan-30 19:32N 37°29' E 023°33'7 7.5
2017-Jan-30 18:33N 37°35' E 023°28'7 7.2
2017-Jan-30 17:33N 37°39' E 023°21'7 7.0
2017-Jan-30 16:33N 37°45' E 023°15'8 8.0
2017-Jan-30 15:33N 37°51' E 023°10'5 4.4
2017-Jan-30 14:29N 37°55' E 023°06'0 0.1
2017-Jan-30 13:28N 37°55' E 023°06'1 0.1
2017-Jan-30 09:10N 37°55' E 023°05'0 0.0
2017-Jan-30 08:07N 37°55' E 023°05'0 0.0
2017-Jan-30 07:25N 37°55' E 023°05'0 0.0
2017-Jan-30 06:25N 37°55' E 023°05'0 0.0
2017-Jan-30 02:33N 37°55' E 023°05'0 0.0
2017-Jan-30 01:32N 37°55' E 023°05'  

Dump ship's entire track history